sensor_id;sensor_type;location;lat;lon;timestamp;temperature;humidity
40059;SHT31;25763;49.972;8.568;2024-01-30T00:00:04;1.46;85.01
40059;SHT31;25763;49.972;8.568;2024-01-30T00:02:31;1.30;85.33
40059;SHT31;25763;49.972;8.568;2024-01-30T00:04:56;1.31;85.60
40059;SHT31;25763;49.972;8.568;2024-01-30T00:07:22;1.27;85.62
40059;SHT31;25763;49.972;8.568;2024-01-30T00:09:47;1.23;85.65
40059;SHT31;25763;49.972;8.568;2024-01-30T00:12:13;1.28;85.77
40059;SHT31;25763;49.972;8.568;2024-01-30T00:14:41;1.25;85.72
40059;SHT31;25763;49.972;8.568;2024-01-30T00:17:08;1.30;85.97
40059;SHT31;25763;49.972;8.568;2024-01-30T00:19:33;1.35;85.87
40059;SHT31;25763;49.972;8.568;2024-01-30T00:21:58;1.46;85.64
40059;SHT31;25763;49.972;8.568;2024-01-30T00:24:24;1.48;85.41
40059;SHT31;25763;49.972;8.568;2024-01-30T00:26:49;1.46;85.17
40059;SHT31;25763;49.972;8.568;2024-01-30T00:29:15;1.52;85.00
40059;SHT31;25763;49.972;8.568;2024-01-30T00:31:45;1.46;85.02
40059;SHT31;25763;49.972;8.568;2024-01-30T00:34:10;1.53;84.92
40059;SHT31;25763;49.972;8.568;2024-01-30T00:36:36;1.59;84.78
40059;SHT31;25763;49.972;8.568;2024-01-30T00:39:01;1.56;84.60
40059;SHT31;25763;49.972;8.568;2024-01-30T00:41:31;1.55;84.43
40059;SHT31;25763;49.972;8.568;2024-01-30T00:43:56;1.58;84.36
40059;SHT31;25763;49.972;8.568;2024-01-30T00:46:21;1.45;84.48
40059;SHT31;25763;49.972;8.568;2024-01-30T00:48:47;1.35;84.58
40059;SHT31;25763;49.972;8.568;2024-01-30T00:51:12;1.35;84.62
40059;SHT31;25763;49.972;8.568;2024-01-30T00:53:37;1.01;85.05
40059;SHT31;25763;49.972;8.568;2024-01-30T00:56:03;1.03;85.38
40059;SHT31;25763;49.972;8.568;2024-01-30T00:58:28;0.90;85.51
40059;SHT31;25763;49.972;8.568;2024-01-30T01:00:54;0.80;85.64
40059;SHT31;25763;49.972;8.568;2024-01-30T01:03:19;0.77;85.67
40059;SHT31;25763;49.972;8.568;2024-01-30T01:05:44;0.68;86.12
40059;SHT31;25763;49.972;8.568;2024-01-30T01:08:10;0.62;86.20
40059;SHT31;25763;49.972;8.568;2024-01-30T01:10:35;0.59;86.43
40059;SHT31;25763;49.972;8.568;2024-01-30T01:13:00;0.65;86.63
40059;SHT31;25763;49.972;8.568;2024-01-30T01:15:26;0.65;86.78
40059;SHT31;25763;49.972;8.568;2024-01-30T01:17:51;0.61;86.79
40059;SHT31;25763;49.972;8.568;2024-01-30T01:20:16;0.59;86.85
40059;SHT31;25763;49.972;8.568;2024-01-30T01:22:41;0.57;86.92
40059;SHT31;25763;49.972;8.568;2024-01-30T01:25:07;0.57;86.73
40059;SHT31;25763;49.972;8.568;2024-01-30T01:27:33;0.62;86.96
40059;SHT31;25763;49.972;8.568;2024-01-30T01:29:59;0.69;86.66
40059;SHT31;25763;49.972;8.568;2024-01-30T01:32:25;0.77;86.47
40059;SHT31;25763;49.972;8.568;2024-01-30T01:34:51;0.80;86.24
40059;SHT31;25763;49.972;8.568;2024-01-30T01:37:16;0.77;86.16
40059;SHT31;25763;49.972;8.568;2024-01-30T01:39:41;0.83;86.00
40059;SHT31;25763;49.972;8.568;2024-01-30T01:42:07;0.84;85.92
40059;SHT31;25763;49.972;8.568;2024-01-30T01:44:32;0.84;85.87
40059;SHT31;25763;49.972;8.568;2024-01-30T01:46:57;0.87;85.64
40059;SHT31;25763;49.972;8.568;2024-01-30T01:49:25;0.90;85.60
40059;SHT31;25763;49.972;8.568;2024-01-30T01:51:54;0.86;85.46
40059;SHT31;25763;49.972;8.568;2024-01-30T01:54:22;0.69;85.70
40059;SHT31;25763;49.972;8.568;2024-01-30T01:56:48;0.61;86.09
40059;SHT31;25763;49.972;8.568;2024-01-30T01:59:13;0.49;86.13
40059;SHT31;25763;49.972;8.568;2024-01-30T02:01:39;0.42;86.07
40059;SHT31;25763;49.972;8.568;2024-01-30T02:04:08;0.34;86.20
40059;SHT31;25763;49.972;8.568;2024-01-30T02:06:37;0.29;86.38
40059;SHT31;25763;49.972;8.568;2024-01-30T02:09:03;0.34;86.51
40059;SHT31;25763;49.972;8.568;2024-01-30T02:11:29;0.42;86.39
40059;SHT31;25763;49.972;8.568;2024-01-30T02:13:55;0.55;86.29
40059;SHT31;25763;49.972;8.568;2024-01-30T02:16:20;0.64;86.13
40059;SHT31;25763;49.972;8.568;2024-01-30T02:18:46;0.73;85.93
40059;SHT31;25763;49.972;8.568;2024-01-30T02:21:15;0.76;85.70
40059;SHT31;25763;49.972;8.568;2024-01-30T02:23:40;0.76;85.49
40059;SHT31;25763;49.972;8.568;2024-01-30T02:26:07;0.77;85.29
40059;SHT31;25763;49.972;8.568;2024-01-30T02:28:32;0.69;85.27
40059;SHT31;25763;49.972;8.568;2024-01-30T02:30:57;0.79;85.33
40059;SHT31;25763;49.972;8.568;2024-01-30T02:33:23;0.80;85.14
40059;SHT31;25763;49.972;8.568;2024-01-30T02:35:48;0.80;84.98
40059;SHT31;25763;49.972;8.568;2024-01-30T02:38:15;0.76;85.05
40059;SHT31;25763;49.972;8.568;2024-01-30T02:40:41;0.77;85.04
40059;SHT31;25763;49.972;8.568;2024-01-30T02:43:06;0.84;84.89
40059;SHT31;25763;49.972;8.568;2024-01-30T02:45:31;0.82;84.96
40059;SHT31;25763;49.972;8.568;2024-01-30T02:47:57;0.83;84.84
40059;SHT31;25763;49.972;8.568;2024-01-30T02:50:22;0.83;84.73
40059;SHT31;25763;49.972;8.568;2024-01-30T02:52:47;0.75;84.80
40059;SHT31;25763;49.972;8.568;2024-01-30T02:55:13;0.69;84.82
40059;SHT31;25763;49.972;8.568;2024-01-30T02:57:38;0.68;84.86
40059;SHT31;25763;49.972;8.568;2024-01-30T03:00:05;0.77;84.77
40059;SHT31;25763;49.972;8.568;2024-01-30T03:02:32;0.79;84.61
40059;SHT31;25763;49.972;8.568;2024-01-30T03:04:58;0.80;84.59
40059;SHT31;25763;49.972;8.568;2024-01-30T03:07:23;0.83;84.52
40059;SHT31;25763;49.972;8.568;2024-01-30T03:09:49;0.86;84.41
40059;SHT31;25763;49.972;8.568;2024-01-30T03:12:14;0.84;84.41
40059;SHT31;25763;49.972;8.568;2024-01-30T03:14:40;0.82;84.38
40059;SHT31;25763;49.972;8.568;2024-01-30T03:17:05;0.84;84.37
40059;SHT31;25763;49.972;8.568;2024-01-30T03:19:30;0.84;84.29
40059;SHT31;25763;49.972;8.568;2024-01-30T03:21:56;0.76;84.15
40059;SHT31;25763;49.972;8.568;2024-01-30T03:24:21;0.58;84.16
40059;SHT31;25763;49.972;8.568;2024-01-30T03:26:46;0.64;84.12
40059;SHT31;25763;49.972;8.568;2024-01-30T03:29:11;0.45;84.17
40059;SHT31;25763;49.972;8.568;2024-01-30T03:31:37;0.31;84.53
40059;SHT31;25763;49.972;8.568;2024-01-30T03:34:02;0.30;84.67
40059;SHT31;25763;49.972;8.568;2024-01-30T03:36:28;0.34;84.73
40059;SHT31;25763;49.972;8.568;2024-01-30T03:38:53;0.38;84.55
40059;SHT31;25763;49.972;8.568;2024-01-30T03:41:19;0.44;84.52
40059;SHT31;25763;49.972;8.568;2024-01-30T03:43:44;0.51;84.33
40059;SHT31;25763;49.972;8.568;2024-01-30T03:46:11;0.54;84.24
40059;SHT31;25763;49.972;8.568;2024-01-30T03:48:37;0.61;84.24
40059;SHT31;25763;49.972;8.568;2024-01-30T03:51:02;0.62;84.22
40059;SHT31;25763;49.972;8.568;2024-01-30T03:53:28;0.61;84.08
40059;SHT31;25763;49.972;8.568;2024-01-30T03:55:53;0.59;84.11
40059;SHT31;25763;49.972;8.568;2024-01-30T03:58:19;0.62;84.14
40059;SHT31;25763;49.972;8.568;2024-01-30T04:00:44;0.62;84.05
40059;SHT31;25763;49.972;8.568;2024-01-30T04:03:09;0.57;84.03
40059;SHT31;25763;49.972;8.568;2024-01-30T04:05:35;0.48;84.28
40059;SHT31;25763;49.972;8.568;2024-01-30T04:08:00;0.38;84.37
40059;SHT31;25763;49.972;8.568;2024-01-30T04:10:26;0.30;84.66
40059;SHT31;25763;49.972;8.568;2024-01-30T04:12:51;0.24;84.92
40059;SHT31;25763;49.972;8.568;2024-01-30T04:15:17;0.23;85.03
40059;SHT31;25763;49.972;8.568;2024-01-30T04:17:43;0.23;85.17
40059;SHT31;25763;49.972;8.568;2024-01-30T04:20:13;0.16;85.38
40059;SHT31;25763;49.972;8.568;2024-01-30T04:22:39;0.10;85.67
40059;SHT31;25763;49.972;8.568;2024-01-30T04:25:04;-0.05;85.72
40059;SHT31;25763;49.972;8.568;2024-01-30T04:27:30;-0.05;85.85
40059;SHT31;25763;49.972;8.568;2024-01-30T04:29:55;-0.12;85.82
40059;SHT31;25763;49.972;8.568;2024-01-30T04:32:20;-0.08;85.91
40059;SHT31;25763;49.972;8.568;2024-01-30T04:34:46;0.06;85.75
40059;SHT31;25763;49.972;8.568;2024-01-30T04:37:11;0.12;85.63
40059;SHT31;25763;49.972;8.568;2024-01-30T04:39:36;0.14;85.46
40059;SHT31;25763;49.972;8.568;2024-01-30T04:42:02;0.17;85.39
40059;SHT31;25763;49.972;8.568;2024-01-30T04:44:27;0.27;85.24
40059;SHT31;25763;49.972;8.568;2024-01-30T04:46:53;0.31;85.13
40059;SHT31;25763;49.972;8.568;2024-01-30T04:49:18;0.37;85.04
40059;SHT31;25763;49.972;8.568;2024-01-30T04:51:44;0.41;85.02
40059;SHT31;25763;49.972;8.568;2024-01-30T04:54:09;0.48;84.94
40059;SHT31;25763;49.972;8.568;2024-01-30T04:56:34;0.48;84.84
40059;SHT31;25763;49.972;8.568;2024-01-30T04:59:02;0.48;84.74
40059;SHT31;25763;49.972;8.568;2024-01-30T05:01:27;0.51;84.64
40059;SHT31;25763;49.972;8.568;2024-01-30T05:03:53;0.48;84.53
40059;SHT31;25763;49.972;8.568;2024-01-30T05:06:27;0.44;84.54
40059;SHT31;25763;49.972;8.568;2024-01-30T05:08:53;0.44;84.48
40059;SHT31;25763;49.972;8.568;2024-01-30T05:11:18;0.31;84.62
40059;SHT31;25763;49.972;8.568;2024-01-30T05:13:44;0.30;84.70
40059;SHT31;25763;49.972;8.568;2024-01-30T05:16:09;0.33;84.82
40059;SHT31;25763;49.972;8.568;2024-01-30T05:18:35;0.33;84.75
40059;SHT31;25763;49.972;8.568;2024-01-30T05:21:00;0.34;84.48
40059;SHT31;25763;49.972;8.568;2024-01-30T05:23:25;0.41;84.43
40059;SHT31;25763;49.972;8.568;2024-01-30T05:25:51;0.44;84.41
40059;SHT31;25763;49.972;8.568;2024-01-30T05:28:16;0.47;84.46
40059;SHT31;25763;49.972;8.568;2024-01-30T05:30:42;0.51;84.45
40059;SHT31;25763;49.972;8.568;2024-01-30T05:33:07;0.51;84.37
40059;SHT31;25763;49.972;8.568;2024-01-30T05:35:32;0.51;84.27
40059;SHT31;25763;49.972;8.568;2024-01-30T05:37:57;0.49;84.22
40059;SHT31;25763;49.972;8.568;2024-01-30T05:40:23;0.49;84.08
40059;SHT31;25763;49.972;8.568;2024-01-30T05:42:48;0.51;84.02
40059;SHT31;25763;49.972;8.568;2024-01-30T05:45:13;0.47;83.97
40059;SHT31;25763;49.972;8.568;2024-01-30T05:47:39;0.44;83.97
40059;SHT31;25763;49.972;8.568;2024-01-30T05:50:05;0.36;84.00
40059;SHT31;25763;49.972;8.568;2024-01-30T05:52:30;0.36;84.03
40059;SHT31;25763;49.972;8.568;2024-01-30T05:54:56;0.26;83.89
40059;SHT31;25763;49.972;8.568;2024-01-30T05:57:21;0.17;83.97
40059;SHT31;25763;49.972;8.568;2024-01-30T05:59:46;0.10;83.84
40059;SHT31;25763;49.972;8.568;2024-01-30T06:02:13;0.17;83.96
40059;SHT31;25763;49.972;8.568;2024-01-30T06:04:38;0.29;83.80
40059;SHT31;25763;49.972;8.568;2024-01-30T06:07:04;0.29;83.80
40059;SHT31;25763;49.972;8.568;2024-01-30T06:09:31;0.14;83.72
40059;SHT31;25763;49.972;8.568;2024-01-30T06:11:56;0.13;84.16
40059;SHT31;25763;49.972;8.568;2024-01-30T06:14:22;0.12;84.15
40059;SHT31;25763;49.972;8.568;2024-01-30T06:16:47;0.10;84.42
40059;SHT31;25763;49.972;8.568;2024-01-30T06:19:12;0.07;84.79
40059;SHT31;25763;49.972;8.568;2024-01-30T06:21:38;0.06;84.79
40059;SHT31;25763;49.972;8.568;2024-01-30T06:24:04;0.13;84.76
40059;SHT31;25763;49.972;8.568;2024-01-30T06:26:29;0.17;84.75
40059;SHT31;25763;49.972;8.568;2024-01-30T06:28:55;0.19;84.63
40059;SHT31;25763;49.972;8.568;2024-01-30T06:31:20;0.26;84.59
40059;SHT31;25763;49.972;8.568;2024-01-30T06:33:49;0.24;84.53
40059;SHT31;25763;49.972;8.568;2024-01-30T06:36:15;0.24;84.53
40059;SHT31;25763;49.972;8.568;2024-01-30T06:38:41;0.27;84.49
40059;SHT31;25763;49.972;8.568;2024-01-30T06:41:06;0.29;84.51
40059;SHT31;25763;49.972;8.568;2024-01-30T06:43:31;0.30;84.44
40059;SHT31;25763;49.972;8.568;2024-01-30T06:45:57;0.33;84.45
40059;SHT31;25763;49.972;8.568;2024-01-30T06:48:22;0.33;84.35
40059;SHT31;25763;49.972;8.568;2024-01-30T06:50:47;0.29;84.32
40059;SHT31;25763;49.972;8.568;2024-01-30T06:53:14;0.31;84.41
40059;SHT31;25763;49.972;8.568;2024-01-30T06:55:39;0.36;84.38
40059;SHT31;25763;49.972;8.568;2024-01-30T06:58:05;0.40;84.30
40059;SHT31;25763;49.972;8.568;2024-01-30T07:00:30;0.42;84.25
40059;SHT31;25763;49.972;8.568;2024-01-30T07:02:56;0.44;84.34
40059;SHT31;25763;49.972;8.568;2024-01-30T07:05:21;0.45;84.34
40059;SHT31;25763;49.972;8.568;2024-01-30T07:07:47;0.45;84.37
40059;SHT31;25763;49.972;8.568;2024-01-30T07:10:12;0.44;84.30
40059;SHT31;25763;49.972;8.568;2024-01-30T07:12:38;0.42;84.18
40059;SHT31;25763;49.972;8.568;2024-01-30T07:15:03;0.44;84.17
40059;SHT31;25763;49.972;8.568;2024-01-30T07:17:29;0.30;84.14
40059;SHT31;25763;49.972;8.568;2024-01-30T07:19:54;0.27;84.36
40059;SHT31;25763;49.972;8.568;2024-01-30T07:22:20;0.12;84.48
40059;SHT31;25763;49.972;8.568;2024-01-30T07:24:45;-0.05;84.92
40059;SHT31;25763;49.972;8.568;2024-01-30T07:27:13;-0.15;85.23
40059;SHT31;25763;49.972;8.568;2024-01-30T07:29:39;-0.08;85.29
40059;SHT31;25763;49.972;8.568;2024-01-30T07:32:05;-0.07;85.39
40059;SHT31;25763;49.972;8.568;2024-01-30T07:34:30;0.09;85.19
40059;SHT31;25763;49.972;8.568;2024-01-30T07:36:56;0.20;85.02
40059;SHT31;25763;49.972;8.568;2024-01-30T07:39:21;0.31;84.89
40059;SHT31;25763;49.972;8.568;2024-01-30T07:41:46;0.29;84.81
40059;SHT31;25763;49.972;8.568;2024-01-30T07:44:12;0.38;84.92
40059;SHT31;25763;49.972;8.568;2024-01-30T07:46:37;0.48;84.78
40059;SHT31;25763;49.972;8.568;2024-01-30T07:49:02;0.59;84.59
40059;SHT31;25763;49.972;8.568;2024-01-30T07:51:28;0.65;84.43
40059;SHT31;25763;49.972;8.568;2024-01-30T07:53:54;0.73;84.35
40059;SHT31;25763;49.972;8.568;2024-01-30T07:56:20;0.65;84.30
40059;SHT31;25763;49.972;8.568;2024-01-30T07:58:45;0.82;84.27
40059;SHT31;25763;49.972;8.568;2024-01-30T08:01:11;0.90;84.23
40059;SHT31;25763;49.972;8.568;2024-01-30T08:03:36;0.80;84.28
40059;SHT31;25763;49.972;8.568;2024-01-30T08:06:02;0.80;84.43
40059;SHT31;25763;49.972;8.568;2024-01-30T08:08:28;0.82;84.47
40059;SHT31;25763;49.972;8.568;2024-01-30T08:10:53;0.87;84.31
40059;SHT31;25763;49.972;8.568;2024-01-30T08:13:19;0.99;84.17
40059;SHT31;25763;49.972;8.568;2024-01-30T08:15:44;1.04;84.12
40059;SHT31;25763;49.972;8.568;2024-01-30T08:18:09;1.12;84.00
40059;SHT31;25763;49.972;8.568;2024-01-30T08:20:35;1.28;83.83
40059;SHT31;25763;49.972;8.568;2024-01-30T08:23:00;1.35;83.69
40059;SHT31;25763;49.972;8.568;2024-01-30T08:25:26;1.42;83.62
40059;SHT31;25763;49.972;8.568;2024-01-30T08:27:51;1.48;83.55
40059;SHT31;25763;49.972;8.568;2024-01-30T08:30:16;1.48;83.46
40059;SHT31;25763;49.972;8.568;2024-01-30T08:32:42;1.43;83.76
40059;SHT31;25763;49.972;8.568;2024-01-30T08:35:07;1.46;83.63
40059;SHT31;25763;49.972;8.568;2024-01-30T08:37:34;1.51;83.75
40059;SHT31;25763;49.972;8.568;2024-01-30T08:39:59;1.48;83.87
40059;SHT31;25763;49.972;8.568;2024-01-30T08:42:25;1.58;84.06
40059;SHT31;25763;49.972;8.568;2024-01-30T08:44:51;1.67;84.04
40059;SHT31;25763;49.972;8.568;2024-01-30T08:47:18;1.66;83.71
40059;SHT31;25763;49.972;8.568;2024-01-30T08:49:44;1.70;83.96
40059;SHT31;25763;49.972;8.568;2024-01-30T08:52:10;1.52;84.37
40059;SHT31;25763;49.972;8.568;2024-01-30T08:54:35;1.67;84.53
40059;SHT31;25763;49.972;8.568;2024-01-30T08:57:01;1.73;84.33
40059;SHT31;25763;49.972;8.568;2024-01-30T08:59:26;1.83;84.45
40059;SHT31;25763;49.972;8.568;2024-01-30T09:01:51;1.94;84.27
40059;SHT31;25763;49.972;8.568;2024-01-30T09:04:23;2.01;84.25
40059;SHT31;25763;49.972;8.568;2024-01-30T09:06:48;1.97;84.26
40059;SHT31;25763;49.972;8.568;2024-01-30T09:09:13;1.98;84.55
40059;SHT31;25763;49.972;8.568;2024-01-30T09:11:39;2.06;84.71
40059;SHT31;25763;49.972;8.568;2024-01-30T09:14:05;2.08;84.68
40059;SHT31;25763;49.972;8.568;2024-01-30T09:16:30;2.13;84.94
40059;SHT31;25763;49.972;8.568;2024-01-30T09:18:55;2.35;84.65
40059;SHT31;25763;49.972;8.568;2024-01-30T09:21:21;2.54;84.48
40059;SHT31;25763;49.972;8.568;2024-01-30T09:23:46;2.65;84.23
40059;SHT31;25763;49.972;8.568;2024-01-30T09:26:11;2.81;84.10
40059;SHT31;25763;49.972;8.568;2024-01-30T09:28:38;2.91;83.90
40059;SHT31;25763;49.972;8.568;2024-01-30T09:31:03;3.12;83.85
40059;SHT31;25763;49.972;8.568;2024-01-30T09:33:29;3.30;83.76
40059;SHT31;25763;49.972;8.568;2024-01-30T09:35:54;3.37;83.65
40059;SHT31;25763;49.972;8.568;2024-01-30T09:38:19;3.55;83.44
40059;SHT31;25763;49.972;8.568;2024-01-30T09:40:51;3.71;83.38
40059;SHT31;25763;49.972;8.568;2024-01-30T09:43:22;3.90;83.15
40059;SHT31;25763;49.972;8.568;2024-01-30T09:45:50;4.06;82.89
40059;SHT31;25763;49.972;8.568;2024-01-30T09:48:15;4.25;82.78
40059;SHT31;25763;49.972;8.568;2024-01-30T09:50:41;4.28;82.43
40059;SHT31;25763;49.972;8.568;2024-01-30T09:53:08;4.22;82.41
40059;SHT31;25763;49.972;8.568;2024-01-30T09:55:35;4.13;82.53
40059;SHT31;25763;49.972;8.568;2024-01-30T09:58:01;4.00;82.79
40059;SHT31;25763;49.972;8.568;2024-01-30T10:00:26;4.11;83.12
40059;SHT31;25763;49.972;8.568;2024-01-30T10:02:53;3.99;83.31
40059;SHT31;25763;49.972;8.568;2024-01-30T10:05:19;4.00;83.59
40059;SHT31;25763;49.972;8.568;2024-01-30T10:07:54;4.21;83.47
40059;SHT31;25763;49.972;8.568;2024-01-30T10:10:23;4.29;83.32
40059;SHT31;25763;49.972;8.568;2024-01-30T10:12:51;4.35;83.01
40059;SHT31;25763;49.972;8.568;2024-01-30T10:15:17;4.34;82.87
40059;SHT31;25763;49.972;8.568;2024-01-30T10:17:44;4.44;82.89
40059;SHT31;25763;49.972;8.568;2024-01-30T10:20:10;4.58;82.89
40059;SHT31;25763;49.972;8.568;2024-01-30T10:22:36;4.79;82.66
40059;SHT31;25763;49.972;8.568;2024-01-30T10:25:01;4.93;82.31
40059;SHT31;25763;49.972;8.568;2024-01-30T10:27:26;4.94;81.98
40059;SHT31;25763;49.972;8.568;2024-01-30T10:29:52;5.00;81.92
40059;SHT31;25763;49.972;8.568;2024-01-30T10:32:19;5.03;81.88
40059;SHT31;25763;49.972;8.568;2024-01-30T10:34:45;5.11;81.88
40059;SHT31;25763;49.972;8.568;2024-01-30T10:37:11;5.29;81.87
40059;SHT31;25763;49.972;8.568;2024-01-30T10:39:42;5.36;81.49
40059;SHT31;25763;49.972;8.568;2024-01-30T10:42:15;5.29;81.21
40059;SHT31;25763;49.972;8.568;2024-01-30T10:45:00;5.40;81.25
40059;SHT31;25763;49.972;8.568;2024-01-30T10:47:29;5.59;81.17
40059;SHT31;25763;49.972;8.568;2024-01-30T10:49:55;5.69;80.91
40059;SHT31;25763;49.972;8.568;2024-01-30T10:52:23;5.63;80.83
40059;SHT31;25763;49.972;8.568;2024-01-30T10:54:50;5.64;80.60
40059;SHT31;25763;49.972;8.568;2024-01-30T10:57:16;5.74;80.59
40059;SHT31;25763;49.972;8.568;2024-01-30T10:59:42;5.81;80.55
40059;SHT31;25763;49.972;8.568;2024-01-30T11:02:09;5.88;80.35
40059;SHT31;25763;49.972;8.568;2024-01-30T11:04:41;6.12;80.29
40059;SHT31;25763;49.972;8.568;2024-01-30T11:07:23;6.44;80.13
40059;SHT31;25763;49.972;8.568;2024-01-30T11:12:25;6.67;79.00
40059;SHT31;25763;49.972;8.568;2024-01-30T11:15:03;7.10;78.90
40059;SHT31;25763;49.972;8.568;2024-01-30T11:17:45;7.07;77.86
40059;SHT31;25763;49.972;8.568;2024-01-30T11:20:22;7.01;78.21
40059;SHT31;25763;49.972;8.568;2024-01-30T11:22:50;7.03;78.22
40059;SHT31;25763;49.972;8.568;2024-01-30T11:25:17;7.32;78.48
40059;SHT31;25763;49.972;8.568;2024-01-30T11:27:44;7.42;77.79
40059;SHT31;25763;49.972;8.568;2024-01-30T11:30:10;7.42;77.21
40059;SHT31;25763;49.972;8.568;2024-01-30T11:32:36;7.58;77.28
40059;SHT31;25763;49.972;8.568;2024-01-30T11:35:04;7.42;76.87
40059;SHT31;25763;49.972;8.568;2024-01-30T11:37:31;7.42;76.79
40059;SHT31;25763;49.972;8.568;2024-01-30T11:39:58;7.30;76.99
40059;SHT31;25763;49.972;8.568;2024-01-30T11:42:23;7.26;77.00
40059;SHT31;25763;49.972;8.568;2024-01-30T11:44:50;7.31;77.09
40059;SHT31;25763;49.972;8.568;2024-01-30T11:47:16;7.36;77.26
40059;SHT31;25763;49.972;8.568;2024-01-30T11:49:42;7.51;77.25
40059;SHT31;25763;49.972;8.568;2024-01-30T11:52:08;7.39;76.92
40059;SHT31;25763;49.972;8.568;2024-01-30T11:54:34;7.46;76.96
40059;SHT31;25763;49.972;8.568;2024-01-30T11:56:59;7.48;76.85
40059;SHT31;25763;49.972;8.568;2024-01-30T11:59:25;7.58;76.82
40059;SHT31;25763;49.972;8.568;2024-01-30T12:01:52;7.77;76.78
40059;SHT31;25763;49.972;8.568;2024-01-30T12:04:17;7.75;76.39
40059;SHT31;25763;49.972;8.568;2024-01-30T12:06:43;7.70;76.32
40059;SHT31;25763;49.972;8.568;2024-01-30T12:09:08;7.71;76.65
40059;SHT31;25763;49.972;8.568;2024-01-30T12:11:48;7.73;76.33
40059;SHT31;25763;49.972;8.568;2024-01-30T12:14:15;7.67;76.28
40059;SHT31;25763;49.972;8.568;2024-01-30T12:16:41;7.59;76.44
40059;SHT31;25763;49.972;8.568;2024-01-30T12:19:06;7.67;76.48
40059;SHT31;25763;49.972;8.568;2024-01-30T12:21:33;7.85;76.54
40059;SHT31;25763;49.972;8.568;2024-01-30T12:23:59;7.93;76.55
40059;SHT31;25763;49.972;8.568;2024-01-30T12:26:25;8.07;76.28
40059;SHT31;25763;49.972;8.568;2024-01-30T12:28:54;8.08;75.59
40059;SHT31;25763;49.972;8.568;2024-01-30T12:31:27;8.26;75.75
40059;SHT31;25763;49.972;8.568;2024-01-30T12:33:53;8.25;75.67
40059;SHT31;25763;49.972;8.568;2024-01-30T12:36:18;8.39;75.29
40059;SHT31;25763;49.972;8.568;2024-01-30T12:38:44;8.38;74.97
40059;SHT31;25763;49.972;8.568;2024-01-30T12:41:10;8.50;74.95
40059;SHT31;25763;49.972;8.568;2024-01-30T12:43:35;8.42;75.16
40059;SHT31;25763;49.972;8.568;2024-01-30T12:46:01;8.43;75.21
40059;SHT31;25763;49.972;8.568;2024-01-30T12:48:28;8.53;75.08
40059;SHT31;25763;49.972;8.568;2024-01-30T12:50:55;8.64;74.81
40059;SHT31;25763;49.972;8.568;2024-01-30T12:53:20;8.83;74.93
40059;SHT31;25763;49.972;8.568;2024-01-30T12:55:45;9.04;74.35
40059;SHT31;25763;49.972;8.568;2024-01-30T12:58:11;9.12;74.01
40059;SHT31;25763;49.972;8.568;2024-01-30T13:00:36;9.18;73.98
40059;SHT31;25763;49.972;8.568;2024-01-30T13:03:01;9.27;73.72
40059;SHT31;25763;49.972;8.568;2024-01-30T13:05:27;9.39;74.01
40059;SHT31;25763;49.972;8.568;2024-01-30T13:07:52;9.52;73.84
40059;SHT31;25763;49.972;8.568;2024-01-30T13:10:19;9.54;72.95
40059;SHT31;25763;49.972;8.568;2024-01-30T13:12:44;9.55;72.75
40059;SHT31;25763;49.972;8.568;2024-01-30T13:15:09;9.51;72.58
40059;SHT31;25763;49.972;8.568;2024-01-30T13:17:36;9.43;72.88
40059;SHT31;25763;49.972;8.568;2024-01-30T13:20:01;9.50;73.10
40059;SHT31;25763;49.972;8.568;2024-01-30T13:22:29;9.55;72.99
40059;SHT31;25763;49.972;8.568;2024-01-30T13:24:54;9.62;73.03
40059;SHT31;25763;49.972;8.568;2024-01-30T13:27:20;9.55;73.27
40059;SHT31;25763;49.972;8.568;2024-01-30T13:29:46;9.43;73.29
40059;SHT31;25763;49.972;8.568;2024-01-30T13:32:11;9.32;73.58
40059;SHT31;25763;49.972;8.568;2024-01-30T13:34:36;9.30;73.85
40059;SHT31;25763;49.972;8.568;2024-01-30T13:37:02;9.30;74.01
40059;SHT31;25763;49.972;8.568;2024-01-30T13:39:27;9.27;74.22
40059;SHT31;25763;49.972;8.568;2024-01-30T13:41:54;9.39;74.30
40059;SHT31;25763;49.972;8.568;2024-01-30T13:44:19;9.46;74.15
40059;SHT31;25763;49.972;8.568;2024-01-30T13:46:46;9.51;74.15
40059;SHT31;25763;49.972;8.568;2024-01-30T13:49:11;9.47;74.03
40059;SHT31;25763;49.972;8.568;2024-01-30T13:51:37;9.37;74.25
40059;SHT31;25763;49.972;8.568;2024-01-30T13:54:02;9.43;74.60
40059;SHT31;25763;49.972;8.568;2024-01-30T13:56:27;9.46;74.31
40059;SHT31;25763;49.972;8.568;2024-01-30T13:58:53;9.46;74.37
40059;SHT31;25763;49.972;8.568;2024-01-30T14:01:20;9.46;74.49
40059;SHT31;25763;49.972;8.568;2024-01-30T14:03:46;9.51;74.65
40059;SHT31;25763;49.972;8.568;2024-01-30T14:06:12;9.48;74.41
40059;SHT31;25763;49.972;8.568;2024-01-30T14:08:37;9.46;74.59
40059;SHT31;25763;49.972;8.568;2024-01-30T14:11:02;9.48;74.69
40059;SHT31;25763;49.972;8.568;2024-01-30T14:13:28;9.54;74.65
40059;SHT31;25763;49.972;8.568;2024-01-30T14:15:54;9.62;74.68
40059;SHT31;25763;49.972;8.568;2024-01-30T14:18:19;9.62;74.27
40059;SHT31;25763;49.972;8.568;2024-01-30T14:20:45;9.57;74.22
40059;SHT31;25763;49.972;8.568;2024-01-30T14:23:10;9.57;74.14
40059;SHT31;25763;49.972;8.568;2024-01-30T14:25:35;9.57;74.06
40059;SHT31;25763;49.972;8.568;2024-01-30T14:28:01;9.59;74.20
40059;SHT31;25763;49.972;8.568;2024-01-30T14:30:26;9.61;74.16
40059;SHT31;25763;49.972;8.568;2024-01-30T14:32:51;9.54;73.85
40059;SHT31;25763;49.972;8.568;2024-01-30T14:35:17;9.62;73.90
40059;SHT31;25763;49.972;8.568;2024-01-30T14:37:42;9.50;73.63
40059;SHT31;25763;49.972;8.568;2024-01-30T14:40:08;9.61;73.95
40059;SHT31;25763;49.972;8.568;2024-01-30T14:42:33;9.57;73.73
40059;SHT31;25763;49.972;8.568;2024-01-30T14:45:01;9.59;73.75
40059;SHT31;25763;49.972;8.568;2024-01-30T14:47:26;9.61;73.87
40059;SHT31;25763;49.972;8.568;2024-01-30T14:49:51;9.62;73.77
40059;SHT31;25763;49.972;8.568;2024-01-30T14:52:17;9.69;73.83
40059;SHT31;25763;49.972;8.568;2024-01-30T14:54:43;9.68;73.63
40059;SHT31;25763;49.972;8.568;2024-01-30T14:57:08;9.69;73.74
40059;SHT31;25763;49.972;8.568;2024-01-30T14:59:34;9.64;73.67
40059;SHT31;25763;49.972;8.568;2024-01-30T15:01:59;9.65;73.68
40059;SHT31;25763;49.972;8.568;2024-01-30T15:04:25;9.61;73.68
40059;SHT31;25763;49.972;8.568;2024-01-30T15:06:50;9.64;73.76
40059;SHT31;25763;49.972;8.568;2024-01-30T15:09:16;9.58;73.83
40059;SHT31;25763;49.972;8.568;2024-01-30T15:11:43;9.59;73.93
40059;SHT31;25763;49.972;8.568;2024-01-30T15:14:09;9.58;73.97
40059;SHT31;25763;49.972;8.568;2024-01-30T15:16:34;9.54;74.00
40059;SHT31;25763;49.972;8.568;2024-01-30T15:19:00;9.51;74.23
40059;SHT31;25763;49.972;8.568;2024-01-30T15:21:25;9.51;74.29
40059;SHT31;25763;49.972;8.568;2024-01-30T15:23:51;9.50;74.52
40059;SHT31;25763;49.972;8.568;2024-01-30T15:26:16;9.47;74.54
40059;SHT31;25763;49.972;8.568;2024-01-30T15:28:41;9.39;74.52
40059;SHT31;25763;49.972;8.568;2024-01-30T15:31:07;9.33;74.48
40059;SHT31;25763;49.972;8.568;2024-01-30T15:33:33;9.36;74.60
40059;SHT31;25763;49.972;8.568;2024-01-30T15:35:59;9.26;74.81
40059;SHT31;25763;49.972;8.568;2024-01-30T15:38:25;9.22;74.94